Time;durP1;ratioP1;P1;durP2;ratioP2;P2;SDS_P1;SDS_P2;PMS_P1;PMS_P2;Temp;Humidity;BMP_temperature;BMP_pressure;BME280_temperature;BME280_humidity;BME280_pressure;Samples;Min_cycle;Max_cycle;Signal;HPM_P1;HPM_P2
2021/08/18 00:01:31;;;;;;;6.78;2.08;;;;;;;15.62;82.01;94470.32;1678347;84;21475;-56
2021/08/18 00:03:58;;;;;;;2.52;1.85;;;;;;;15.61;81.91;94472.18;1696115;84;21031;-56
2021/08/18 00:06:25;;;;;;;2.47;2.22;;;;;;;15.61;82.04;94470.19;1696300;84;20976;-56
2021/08/18 00:08:52;;;;;;;4.15;2.40;;;;;;;15.58;82.20;94471.77;1696005;84;21047;-58
2021/08/18 00:11:20;;;;;;;3.17;1.90;;;;;;;15.53;82.25;94460.74;1696249;84;21082;-56
2021/08/18 00:13:47;;;;;;;2.70;1.62;;;;;;;15.46;82.37;94462.55;1696170;83;20988;-56
2021/08/18 00:16:16;;;;;;;4.72;2.10;;;;;;;15.41;82.66;94457.71;1696192;84;21031;-56
2021/08/18 00:18:43;;;;;;;4.55;1.87;;;;;;;15.38;82.88;94455.13;1696276;84;21055;-56
2021/08/18 00:21:12;;;;;;;3.72;2.05;;;;;;;15.41;82.87;94463.86;1696052;84;21042;-56
2021/08/18 00:23:40;;;;;;;2.72;1.92;;;;;;;15.46;82.74;94455.62;1696084;84;21086;-55
2021/08/18 00:26:07;;;;;;;3.72;2.08;;;;;;;15.48;82.42;94462.83;1696917;83;20940;-55
2021/08/18 00:28:34;;;;;;;2.55;2.10;;;;;;;15.47;82.17;94464.69;1713312;83;20960;-55
2021/08/18 00:31:01;;;;;;;3.25;2.33;;;;;;;15.48;82.27;94455.13;1713254;83;21004;-57
2021/08/18 00:33:28;;;;;;;4.37;1.98;;;;;;;15.46;82.16;94454.23;1713447;83;20964;-55
2021/08/18 00:35:54;;;;;;;3.77;2.00;;;;;;;15.47;82.27;94450.22;1684739;83;21831;-57
2021/08/18 00:38:21;;;;;;;4.90;2.25;;;;;;;15.49;82.30;94449.71;1713192;82;21032;-57
2021/08/18 00:40:49;;;;;;;2.55;1.80;;;;;;;15.48;82.12;94457.89;1713401;83;21520;-56
2021/08/18 00:43:16;;;;;;;3.15;1.80;;;;;;;15.46;82.26;94452.85;1713564;83;21008;-56
2021/08/18 00:45:44;;;;;;;2.22;2.02;;;;;;;15.46;82.23;94456.23;1713469;83;20981;-56
2021/08/18 00:48:11;;;;;;;3.70;2.27;;;;;;;15.44;82.20;94457.34;1713186;83;21136;-57
2021/08/18 00:50:39;;;;;;;4.92;2.42;;;;;;;15.42;82.32;94462.01;1713178;83;21569;-54
2021/08/18 00:53:07;;;;;;;3.95;2.42;;;;;;;15.43;82.32;94467.69;1713382;83;20960;-56
2021/08/18 00:55:34;;;;;;;5.15;2.15;;;;;;;15.42;82.33;94465.39;1713247;83;21024;-56
2021/08/18 00:58:04;;;;;;;3.67;2.10;;;;;;;15.40;82.29;94457.55;1713277;83;21056;-57
2021/08/18 01:00:30;;;;;;;3.37;1.92;;;;;;;15.42;82.65;94458.45;1713482;83;21134;-57
2021/08/18 01:02:57;;;;;;;2.30;1.80;;;;;;;15.42;82.91;94462.01;1713185;83;21043;-56
2021/08/18 01:05:28;;;;;;;4.62;2.08;;;;;;;15.42;83.11;94463.39;1713284;83;21055;-55
2021/08/18 01:07:58;;;;;;;2.00;1.80;;;;;;;15.43;83.28;94462.14;1713400;83;20948;-56
2021/08/18 01:10:28;;;;;;;3.00;1.92;;;;;;;15.47;83.24;94460.53;1713299;83;21020;-56
2021/08/18 01:12:55;;;;;;;4.00;2.20;;;;;;;15.48;83.42;94466.98;1713721;83;21132;-56
2021/08/18 01:15:23;;;;;;;3.55;2.10;;;;;;;15.51;83.62;94468.78;1713284;83;21012;-56
2021/08/18 01:17:54;;;;;;;3.02;2.05;;;;;;;15.50;83.54;94466.48;1686071;83;21581;-58
2021/08/18 01:20:32;;;;;;;4.20;1.90;;;;;;;15.49;83.47;94467.73;1713427;83;21016;-58
2021/08/18 01:23:02;;;;;;;1.80;1.70;;;;;;;15.50;83.36;94476.19;1713789;83;20992;-56
2021/08/18 01:25:28;;;;;;;1.75;1.65;;;;;;;15.48;83.32;94473.92;1713335;83;21105;-56
2021/08/18 01:27:59;;;;;;;2.58;1.80;;;;;;;15.50;83.22;94483.90;1713432;83;21047;-57
2021/08/18 01:30:27;;;;;;;2.35;1.90;;;;;;;15.51;83.35;94478.48;1713614;83;20984;-57
2021/08/18 01:32:58;;;;;;;4.90;1.98;;;;;;;15.54;83.22;94473.36;1713440;83;21005;-57
2021/08/18 01:35:34;;;;;;;3.27;1.98;;;;;;;15.53;83.22;94473.22;1713677;83;21115;-56
2021/08/18 01:38:05;;;;;;;3.85;1.90;;;;;;;15.50;83.40;94467.27;1713454;82;20992;-56
2021/08/18 01:40:31;;;;;;;2.62;1.57;;;;;;;15.48;83.56;94464.22;1711984;83;21091;-58
2021/08/18 01:43:00;;;;;;;2.70;1.62;;;;;;;15.48;83.27;94467.59;1713089;83;20968;-57
2021/08/18 01:45:34;;;;;;;3.45;1.72;;;;;;;15.42;83.17;94463.39;1713557;83;21008;-56
2021/08/18 01:48:15;;;;;;;1.60;1.50;;;;;;;15.37;83.48;94464.70;1713299;83;21301;-56
2021/08/18 01:50:42;;;;;;;2.58;1.77;;;;;;;15.35;83.83;94463.04;1709202;83;21280;-56
2021/08/18 01:53:09;;;;;;;1.82;1.40;;;;;;;15.32;83.84;94456.44;1713645;83;21119;-56
2021/08/18 01:55:38;;;;;;;2.02;1.55;;;;;;;15.35;84.01;94461.66;1713510;83;20965;-56
2021/08/18 01:58:07;;;;;;;1.82;1.67;;;;;;;15.39;83.93;94467.11;1713465;83;20969;-57
2021/08/18 02:00:34;;;;;;;2.25;1.70;;;;;;;15.38;83.83;94460.04;1713621;83;20991;-56
2021/08/18 02:03:04;;;;;;;1.92;1.70;;;;;;;15.38;83.85;94466.22;1713396;83;20992;-55
2021/08/18 02:05:30;;;;;;;2.65;1.50;;;;;;;15.36;83.83;94468.08;1713282;83;21005;-56
2021/08/18 02:07:58;;;;;;;2.15;1.60;;;;;;;15.36;83.93;94469.47;1713593;83;21020;-56
2021/08/18 02:10:28;;;;;;;1.57;1.42;;;;;;;15.37;83.96;94466.09;1713294;83;21559;-56
2021/08/18 02:12:55;;;;;;;1.70;1.60;;;;;;;15.37;84.08;94468.22;1713501;83;21058;-56
2021/08/18 02:15:28;;;;;;;4.12;2.15;;;;;;;15.38;84.21;94463.45;1713607;83;20941;-55
2021/08/18 02:17:57;;;;;;;1.77;1.67;;;;;;;15.40;84.10;94461.70;1713735;83;21040;-56
2021/08/18 02:20:27;;;;;;;2.52;1.72;;;;;;;15.40;83.86;94456.16;1713494;83;21083;-56
2021/08/18 02:22:55;;;;;;;2.95;1.67;;;;;;;15.42;83.91;94451.52;1713759;83;21440;-55
2021/08/18 02:25:22;;;;;;;2.27;1.60;;;;;;;15.44;83.91;94453.97;1713354;83;21138;-55
2021/08/18 02:27:51;;;;;;;1.98;1.80;;;;;;;15.46;83.84;94457.01;1713642;83;21527;-55
2021/08/18 02:30:20;;;;;;;7.20;2.47;;;;;;;15.47;83.80;94458.53;1713443;83;21016;-55
2021/08/18 02:32:47;;;;;;;3.98;1.90;;;;;;;15.49;83.73;94461.58;1713650;83;21043;-55
2021/08/18 02:35:14;;;;;;;7.42;2.80;;;;;;;15.52;83.62;94461.99;1713521;83;20972;-55
2021/08/18 02:37:43;;;;;;;2.37;1.60;;;;;;;15.51;83.41;94466.02;1713329;82;21107;-55
2021/08/18 02:40:16;;;;;;;3.50;2.25;;;;;;;15.49;83.56;94464.35;1713295;83;21043;-55
2021/08/18 02:42:42;;;;;;;3.17;1.70;;;;;;;15.47;83.61;94462.69;1714027;83;20986;-55
2021/08/18 02:45:11;;;;;;;2.55;2.02;;;;;;;15.48;83.47;94461.44;1713609;83;22112;-55
2021/08/18 02:47:38;;;;;;;2.20;2.00;;;;;;;15.50;83.21;94470.03;1713379;83;21538;-55
2021/08/18 02:50:07;;;;;;;4.05;1.90;;;;;;;15.53;83.10;94460.74;1718286;83;21007;-56
2021/08/18 02:52:35;;;;;;;3.15;2.20;;;;;;;15.56;82.57;94466.70;1718713;83;21988;-55
2021/08/18 02:55:05;;;;;;;3.50;2.15;;;;;;;15.54;82.00;94461.52;1718726;83;21483;-55
2021/08/18 02:57:31;;;;;;;7.70;2.77;;;;;;;15.51;81.67;94459.08;1719165;83;21558;-56
2021/08/18 02:59:59;;;;;;;3.00;2.27;;;;;;;15.47;81.50;94458.53;1718766;83;21023;-55
2021/08/18 03:02:26;;;;;;;5.20;2.40;;;;;;;15.44;81.35;94446.25;1718909;83;21043;-55
2021/08/18 03:04:53;;;;;;;2.20;2.00;;;;;;;15.41;81.01;94448.62;1718946;83;21108;-54
2021/08/18 03:07:20;;;;;;;5.15;2.77;;;;;;;15.33;80.91;94446.13;1718602;83;21059;-56
2021/08/18 03:09:48;;;;;;;2.98;2.33;;;;;;;15.29;81.28;94442.78;1718890;83;20996;-57
2021/08/18 03:12:16;;;;;;;8.43;2.72;;;;;;;15.30;81.59;94440.15;1718981;83;21067;-55
2021/08/18 03:14:44;;;;;;;3.42;2.47;;;;;;;15.27;81.56;94437.70;1718766;83;21035;-55
2021/08/18 03:17:12;;;;;;;4.03;2.67;;;;;;;15.25;81.28;94433.89;1718957;83;21156;-55
2021/08/18 03:19:40;;;;;;;6.87;2.72;;;;;;;15.22;80.54;94442.53;1718694;83;21032;-54
2021/08/18 03:22:09;;;;;;;2.70;2.50;;;;;;;15.21;80.30;94433.34;1718775;83;21019;-56
2021/08/18 03:24:35;;;;;;;5.28;4.47;;;;;;;15.21;79.87;94441.02;1718875;83;21464;-56
2021/08/18 03:27:02;;;;;;;5.60;4.42;;;;;;;15.21;79.18;94439.63;1718958;83;21043;-56
2021/08/18 03:29:29;;;;;;;7.40;4.42;;;;;;;15.19;78.95;94442.13;1718812;83;21120;-56
2021/08/18 03:31:55;;;;;;;8.38;5.58;;;;;;;15.18;78.90;94441.98;1719127;83;21408;-55
2021/08/18 03:34:22;;;;;;;6.95;4.87;;;;;;;15.16;78.91;94437.55;1718671;83;21055;-57
2021/08/18 03:36:49;;;;;;;5.45;4.22;;;;;;;15.14;78.78;94442.81;1718836;82;21067;-57
2021/08/18 03:39:16;;;;;;;4.20;2.98;;;;;;;15.12;78.80;94439.00;1718703;83;21095;-56
2021/08/18 03:41:44;;;;;;;4.30;2.95;;;;;;;15.11;78.54;94433.31;1718712;83;21048;-56
2021/08/18 03:44:11;;;;;;;2.55;2.25;;;;;;;15.05;78.09;94429.11;1718670;83;21004;-54
2021/08/18 03:46:37;;;;;;;4.87;2.65;;;;;;;15.03;78.24;94434.34;1718443;83;21472;-56
2021/08/18 03:49:05;;;;;;;7.10;2.45;;;;;;;15.05;78.24;94429.72;1718421;83;20980;-56
2021/08/18 03:51:32;;;;;;;2.65;2.42;;;;;;;15.05;78.20;94436.64;1718860;83;21016;-57
2021/08/18 03:53:58;;;;;;;3.40;2.30;;;;;;;14.97;78.29;94432.13;1718549;83;21798;-55
2021/08/18 03:56:25;;;;;;;3.40;2.50;;;;;;;14.96;78.46;94430.61;1718654;83;21079;-56
2021/08/18 03:58:51;;;;;;;3.60;2.50;;;;;;;14.94;78.57;94434.48;1719132;83;21052;-54
2021/08/18 04:01:19;;;;;;;3.35;2.50;;;;;;;14.93;78.83;94430.19;1718773;83;21526;-57
2021/08/18 04:03:46;;;;;;;5.65;2.52;;;;;;;14.95;79.12;94431.85;1718562;83;21063;-55
2021/08/18 04:06:12;;;;;;;6.62;2.80;;;;;;;14.91;79.16;94432.68;1718610;83;21207;-56
2021/08/18 04:08:39;;;;;;;3.25;2.67;;;;;;;14.84;79.39;94430.30;1718516;83;21124;-55
2021/08/18 04:11:09;;;;;;;3.98;2.72;;;;;;;14.82;79.65;94427.89;1718747;83;21000;-55
2021/08/18 04:13:37;;;;;;;3.85;2.83;;;;;;;14.83;79.90;94437.72;1718637;83;20972;-55
2021/08/18 04:16:04;;;;;;;3.77;2.90;;;;;;;14.83;79.81;94435.70;1718914;83;21433;-56
2021/08/18 04:18:33;;;;;;;4.72;2.70;;;;;;;14.79;79.98;94436.52;1718715;83;21000;-56
2021/08/18 04:20:59;;;;;;;5.12;2.58;;;;;;;14.78;80.05;94441.17;1718578;83;21019;-56
2021/08/18 04:23:27;;;;;;;3.47;2.75;;;;;;;14.76;80.19;94442.25;1718632;83;21019;-56
2021/08/18 04:25:55;;;;;;;8.58;3.90;;;;;;;14.76;80.37;94440.27;1718747;83;21012;-55
2021/08/18 04:28:21;;;;;;;4.17;3.02;;;;;;;14.80;80.37;94435.28;1718679;83;21063;-57
2021/08/18 04:30:48;;;;;;;6.65;3.37;;;;;;;14.89;80.60;94437.94;1718827;83;22119;-57
2021/08/18 04:33:15;;;;;;;4.53;3.15;;;;;;;14.97;80.69;94440.44;1718650;83;21094;-56
2021/08/18 04:35:42;;;;;;;5.03;2.80;;;;;;;15.03;80.62;94446.81;1718628;83;21122;-55
2021/08/18 04:38:09;;;;;;;5.30;2.98;;;;;;;15.06;80.44;94440.33;1718779;82;21007;-56
2021/08/18 04:40:36;;;;;;;4.40;2.98;;;;;;;15.05;80.34;94442.96;1718625;83;21462;-56
2021/08/18 04:43:03;;;;;;;7.90;3.65;;;;;;;15.02;80.10;94457.01;1718929;83;21279;-56
2021/08/18 04:45:29;;;;;;;4.58;2.92;;;;;;;14.99;80.14;94449.02;1718677;83;21095;-57
2021/08/18 04:47:56;;;;;;;3.87;3.12;;;;;;;15.03;80.11;94449.58;1718788;83;21039;-56
2021/08/18 04:50:25;;;;;;;3.65;2.72;;;;;;;15.10;80.06;94452.58;1713909;83;21531;-56
2021/08/18 04:52:53;;;;;;;2.95;2.10;;;;;;;15.13;79.55;94452.37;1713454;83;21012;-55
2021/08/18 04:55:20;;;;;;;3.60;2.55;;;;;;;15.15;79.26;94456.81;1713695;83;21128;-58
2021/08/18 04:57:46;;;;;;;2.55;2.20;;;;;;;15.13;78.79;94467.62;1713332;83;21043;-55
2021/08/18 05:00:16;;;;;;;4.08;3.08;;;;;;;15.09;78.73;94462.91;1713424;83;21531;-56
2021/08/18 05:02:45;;;;;;;3.72;2.72;;;;;;;15.07;78.48;94472.33;1713614;83;21193;-55
2021/08/18 05:05:12;;;;;;;6.30;2.80;;;;;;;15.08;78.54;94482.16;1713723;83;21499;-56
2021/08/18 05:07:39;;;;;;;5.17;2.83;;;;;;;15.12;78.70;94475.02;1713676;83;21102;-56
2021/08/18 05:10:08;;;;;;;3.35;2.60;;;;;;;15.18;78.64;94480.03;1713363;83;20961;-57
2021/08/18 05:12:37;;;;;;;7.90;2.92;;;;;;;15.26;78.59;94482.53;1713450;83;20961;-58
2021/08/18 05:15:08;;;;;;;3.45;2.77;;;;;;;15.33;78.78;94482.16;1713349;83;20980;-57
2021/08/18 05:17:35;;;;;;;4.97;2.80;;;;;;;15.39;78.73;94488.54;1713763;83;20964;-57
2021/08/18 05:20:06;;;;;;;5.40;2.75;;;;;;;15.43;78.63;94487.70;1713563;83;21488;-55
2021/08/18 05:22:33;;;;;;;2.70;2.40;;;;;;;15.51;78.05;94488.19;1713668;83;21012;-56
2021/08/18 05:25:01;;;;;;;3.40;2.75;;;;;;;15.55;77.77;94487.36;1713467;83;21028;-59
2021/08/18 05:27:28;;;;;;;3.50;2.58;;;;;;;15.62;77.57;94489.73;1712140;83;20948;-57
2021/08/18 05:29:55;;;;;;;3.42;2.62;;;;;;;15.69;77.55;94487.17;1712935;83;21562;-57
2021/08/18 05:32:22;;;;;;;4.00;2.30;;;;;;;15.74;77.33;94477.50;1713517;83;21102;-57
2021/08/18 05:34:49;;;;;;;3.67;2.45;;;;;;;15.82;77.11;94484.78;1698896;83;21011;-58
2021/08/18 05:37:15;;;;;;;2.95;2.52;;;;;;;15.93;76.51;94478.73;1686794;85;21095;-57
2021/08/18 05:39:42;;;;;;;4.03;2.90;;;;;;;16.04;76.36;94478.87;1685386;83;21631;-60
2021/08/18 05:42:09;;;;;;;3.98;2.55;;;;;;;16.13;76.07;94469.63;1688276;83;21044;-59
2021/08/18 05:44:36;;;;;;;3.80;2.72;;;;;;;16.23;74.72;94471.75;1694913;83;21146;-58
2021/08/18 05:47:04;;;;;;;4.05;2.15;;;;;;;16.27;74.13;94463.20;1687952;83;21205;-60
2021/08/18 05:49:30;;;;;;;8.43;2.90;;;;;;;16.27;73.74;94468.12;1695566;83;20988;-60
2021/08/18 05:51:57;;;;;;;6.45;2.70;;;;;;;16.30;73.59;94467.91;1706615;83;21101;-58
2021/08/18 05:54:25;;;;;;;8.88;3.45;;;;;;;16.34;73.87;94464.92;1683646;83;21048;-59
2021/08/18 05:56:52;;;;;;;9.83;3.72;;;;;;;16.37;74.14;94465.36;1688824;83;21208;-60
2021/08/18 05:59:19;;;;;;;9.43;3.47;;;;;;;16.39;73.43;94472.56;1691084;83;21044;-58
2021/08/18 06:01:46;;;;;;;14.83;3.58;;;;;;;16.43;72.61;94475.87;1676767;83;21061;-59
2021/08/18 06:04:13;;;;;;;3.95;3.55;;;;;;;16.52;72.10;94479.89;1682991;83;21588;-57
2021/08/18 06:06:41;;;;;;;13.30;8.03;;;;;;;16.64;71.29;94450.32;1701741;83;21058;-60
2021/08/18 06:09:08;;;;;;;7.95;5.17;;;;;;;16.74;70.76;94458.59;1698883;83;21086;-60
2021/08/18 06:11:40;;;;;;;7.70;5.08;;;;;;;16.88;70.31;94463.89;1696909;83;21039;-59
2021/08/18 06:14:08;;;;;;;7.50;3.80;;;;;;;17.04;69.00;94461.22;1672552;83;21214;-63
2021/08/18 06:16:35;;;;;;;7.10;4.80;;;;;;;17.20;67.48;94468.14;1689891;83;21070;-60
2021/08/18 06:19:01;;;;;;;5.92;3.65;;;;;;;17.34;67.04;94473.58;1694542;83;21549;-63
2021/08/18 06:21:28;;;;;;;5.03;4.00;;;;;;;17.45;65.87;94466.67;1698033;83;21107;-60
2021/08/18 06:24:03;;;;;;;8.80;3.80;;;;;;;17.52;65.27;94473.17;1699505;83;21021;-59
2021/08/18 06:26:26;;;;;;;6.08;3.83;;;;;;;17.61;65.37;94461.08;1690936;83;22235;-60
2021/08/18 06:28:54;;;;;;;8.23;3.98;;;;;;;17.71;65.71;94458.20;1685907;83;21003;-61
2021/08/18 06:31:22;;;;;;;24.67;16.27;;;;;;;17.78;64.48;94449.36;1687775;83;21482;-62
2021/08/18 06:33:49;;;;;;;10.75;4.67;;;;;;;17.78;64.43;94447.97;1690314;83;21684;-60
2021/08/18 06:36:18;;;;;;;9.43;4.90;;;;;;;17.76;64.36;94446.31;1698295;82;21114;-61
2021/08/18 06:38:46;;;;;;;6.28;3.30;;;;;;;17.75;64.80;94440.62;1690399;83;21080;-61
2021/08/18 06:41:21;;;;;;;8.95;3.75;;;;;;;17.72;64.55;94431.27;1691538;83;20987;-61
2021/08/18 06:47:11;;;;;;;4.67;3.08;;;;;;;17.72;64.40;94434.05;1589671;88;21574;-63
2021/08/18 06:49:45;;;;;;;5.37;3.70;;;;;;;17.73;63.88;94429.23;1615310;88;21136;-62
2021/08/18 06:52:13;;;;;;;6.28;3.58;;;;;;;17.75;63.54;94419.14;1683365;83;21150;-60
2021/08/18 06:54:42;;;;;;;7.60;3.00;;;;;;;17.79;63.57;94428.00;1693624;83;21625;-60
2021/08/18 06:57:13;;;;;;;5.60;2.87;;;;;;;17.76;63.20;94433.80;1704993;83;20994;-62
2021/08/18 06:59:40;;;;;;;5.67;3.65;;;;;;;17.74;63.10;94438.48;1688289;82;21148;-60
2021/08/18 07:02:07;;;;;;;20.82;4.67;;;;;;;17.79;62.79;94434.20;1685621;83;21396;-59
2021/08/18 07:04:39;;;;;;;7.05;3.58;;;;;;;17.83;62.60;94433.33;1689025;84;21078;-62
2021/08/18 07:07:28;;;;;;;6.03;3.22;;;;;;;17.82;62.41;94438.77;1702743;83;21085;-62
2021/08/18 07:10:07;;;;;;;5.53;3.45;;;;;;;17.86;63.18;94433.72;1691146;83;21001;-63
2021/08/18 07:12:45;;;;;;;3.20;2.40;;;;;;;17.87;62.46;94439.41;1687667;83;21066;-62
2021/08/18 07:15:21;;;;;;;4.28;2.92;;;;;;;17.85;62.60;94442.69;1659666;84;21110;-60
2021/08/18 07:18:01;;;;;;;6.92;3.12;;;;;;;17.84;62.72;94441.81;1676985;85;21086;-62
2021/08/18 07:20:29;;;;;;;5.62;2.65;;;;;;;17.89;62.69;94442.45;1682322;84;21193;-62
2021/08/18 07:22:56;;;;;;;9.13;3.40;;;;;;;17.96;62.25;94445.52;1703573;84;21101;-61
2021/08/18 07:25:23;;;;;;;5.95;2.70;;;;;;;18.02;61.20;94437.19;1710890;83;21324;-59
2021/08/18 07:27:50;;;;;;;9.30;4.75;;;;;;;18.08;62.53;94435.94;1686757;83;21088;-61
2021/08/18 07:30:18;;;;;;;8.98;3.87;;;;;;;18.13;62.84;94429.61;1694275;83;21075;-58
2021/08/18 07:32:46;;;;;;;6.75;3.08;;;;;;;18.18;62.96;94430.25;1670650;83;21102;-62
2021/08/18 07:35:13;;;;;;;5.92;2.52;;;;;;;18.16;62.28;94433.42;1682366;83;21083;-59
2021/08/18 07:37:40;;;;;;;6.00;2.52;;;;;;;18.14;61.98;94429.73;1683711;84;21142;-61
2021/08/18 07:40:08;;;;;;;5.15;2.67;;;;;;;18.12;62.08;94437.06;1703290;84;21102;-62
2021/08/18 07:42:36;;;;;;;7.70;3.77;;;;;;;18.13;62.10;94437.19;1708137;83;21102;-62
2021/08/18 07:45:03;;;;;;;12.37;3.27;;;;;;;18.15;62.49;94434.69;1694407;83;21035;-62
2021/08/18 07:47:30;;;;;;;4.42;2.37;;;;;;;18.19;62.51;94442.29;1689783;83;21041;-59
2021/08/18 07:49:57;;;;;;;3.35;2.33;;;;;;;18.18;61.72;94442.16;1694659;83;21073;-60
2021/08/18 07:52:24;;;;;;;16.62;3.05;;;;;;;18.18;61.24;94444.17;1682329;83;21073;-59
2021/08/18 07:54:52;;;;;;;4.78;2.62;;;;;;;18.16;61.64;94441.13;1701496;83;21567;-59
2021/08/18 07:57:21;;;;;;;5.40;2.45;;;;;;;18.14;61.79;94449.23;1698800;83;21079;-63
2021/08/18 07:59:51;;;;;;;2.58;2.37;;;;;;;18.12;62.18;94446.81;1683620;83;21118;-61
2021/08/18 08:02:22;;;;;;;5.10;3.47;;;;;;;18.04;62.69;94445.79;1694989;83;21148;-64
2021/08/18 08:04:50;;;;;;;9.45;3.02;;;;;;;17.97;63.26;94447.68;1697652;83;21055;-64
2021/08/18 08:07:17;;;;;;;6.33;2.80;;;;;;;17.91;63.58;94441.31;1703475;83;21158;-62
2021/08/18 08:09:59;;;;;;;10.00;3.17;;;;;;;17.92;64.35;94447.78;1707085;83;21049;-65
2021/08/18 08:12:40;;;;;;;15.23;3.77;;;;;;;17.99;64.52;94435.41;1683219;83;21114;-67
2021/08/18 08:15:17;;;;;;;11.25;3.67;;;;;;;18.12;64.12;94441.23;1704791;83;21084;-65
2021/08/18 08:17:52;;;;;;;3.90;2.67;;;;;;;18.23;64.02;94435.06;1703106;83;21025;-67
2021/08/18 08:20:23;;;;;;;7.85;2.80;;;;;;;18.37;63.39;94430.70;1711034;83;21407;-63
2021/08/18 08:22:51;;;;;;;4.37;3.00;;;;;;;18.47;63.11;94437.53;1656575;83;21101;-59
2021/08/18 08:25:20;;;;;;;4.03;2.40;;;;;;;18.42;62.85;94437.55;1708564;83;21081;-63
2021/08/18 08:27:47;;;;;;;12.65;3.10;;;;;;;18.36;62.90;94440.32;1698151;83;21660;-60
2021/08/18 08:30:17;;;;;;;8.30;3.58;;;;;;;18.32;62.87;94439.05;1699499;83;21043;-61
2021/08/18 08:32:50;;;;;;;10.58;4.28;;;;;;;18.27;63.29;94445.37;1680150;83;21580;-61
2021/08/18 08:35:24;;;;;;;6.75;2.98;;;;;;;18.25;63.67;94443.05;1697366;83;21478;-60
2021/08/18 08:38:02;;;;;;;4.85;3.27;;;;;;;18.28;63.89;94449.03;1674556;83;21059;-58
2021/08/18 08:40:52;;;;;;;6.90;3.52;;;;;;;18.29;63.29;94442.19;1697889;83;21110;-56
2021/08/18 08:43:19;;;;;;;7.30;3.37;;;;;;;18.23;63.67;94441.41;1684094;83;21829;-66
2021/08/18 08:45:48;;;;;;;6.03;3.30;;;;;;;18.15;63.82;94436.08;1710778;83;32562;-61
2021/08/18 08:48:16;;;;;;;9.78;3.62;;;;;;;18.10;64.34;94439.59;1708623;83;21660;-61
2021/08/18 08:50:48;;;;;;;10.05;5.72;;;;;;;18.06;64.26;94437.69;1701568;83;20997;-63
2021/08/18 08:53:16;;;;;;;9.58;4.17;;;;;;;18.01;63.81;94435.66;1693675;83;21134;-56
2021/08/18 08:55:43;;;;;;;6.78;4.25;;;;;;;17.97;64.31;94427.55;1693469;83;21043;-59
2021/08/18 08:58:10;;;;;;;4.83;3.52;;;;;;;17.93;63.68;94426.27;1700226;83;22271;-59
2021/08/18 09:00:37;;;;;;;10.10;3.87;;;;;;;17.92;63.83;94431.70;1696651;83;21103;-58
2021/08/18 09:03:16;;;;;;;6.75;4.25;;;;;;;17.87;63.61;94433.84;1687750;83;21108;-59
2021/08/18 09:05:45;;;;;;;6.30;3.77;;;;;;;17.87;63.73;94433.84;1683569;83;21206;-60
2021/08/18 09:08:18;;;;;;;22.27;5.47;;;;;;;17.90;63.73;94434.23;1690589;83;21187;-66
2021/08/18 09:11:05;;;;;;;12.80;4.43;;;;;;;17.87;63.35;94436.02;1677143;83;21172;-66
2021/08/18 09:13:48;;;;;;;5.30;4.35;;;;;;;17.79;63.83;94425.86;1683807;83;21643;-58
2021/08/18 09:16:16;;;;;;;;;;;;;;;17.77;64.25;94429.13;1692319;83;21070;-58
2021/08/18 09:19:05;;;;;;;6.97;3.83;;;;;;;17.79;65.08;94430.78;1675906;84;21125;-62
2021/08/18 09:21:40;;;;;;;11.40;4.37;;;;;;;17.83;64.48;94422.20;1637792;83;21043;-64
2021/08/18 09:24:18;;;;;;;10.93;6.17;;;;;;;17.84;64.57;94421.69;1684105;83;21115;-57
2021/08/18 09:26:55;;;;;;;7.33;4.50;;;;;;;17.89;64.12;94429.31;1689042;83;21138;-59
2021/08/18 09:29:47;;;;;;;9.00;4.10;;;;;;;17.87;63.73;94429.05;1692915;83;20980;-59
2021/08/18 09:32:34;;;;;;;13.65;4.58;;;;;;;17.79;63.70;94430.78;1686918;83;22279;-63
2021/08/18 09:35:15;;;;;;;14.47;4.45;;;;;;;17.75;64.50;94433.67;1690010;83;21050;-58
2021/08/18 09:37:56;;;;;;;6.67;4.30;;;;;;;17.65;65.12;94442.12;1693829;83;22178;-61
2021/08/18 09:40:33;;;;;;;7.25;3.52;;;;;;;17.56;65.55;94436.75;1698148;83;21077;-59
2021/08/18 09:43:25;;;;;;;7.58;3.67;;;;;;;17.55;65.92;94418.55;1687770;83;21601;-65
2021/08/18 09:46:03;;;;;;;6.28;3.90;;;;;;;17.65;66.77;94418.47;1688154;83;21895;-64
2021/08/18 09:48:33;;;;;;;8.88;3.75;;;;;;;17.86;66.73;94413.59;1672503;84;21100;-59
2021/08/18 09:51:19;;;;;;;6.70;4.50;;;;;;;18.04;66.48;94413.77;1674236;83;21053;-60
2021/08/18 09:53:46;;;;;;;4.30;3.52;;;;;;;18.17;66.19;94423.81;1703241;83;22129;-56
2021/08/18 09:56:15;;;;;;;8.13;4.30;;;;;;;18.23;65.08;94437.22;1703825;83;21073;-65
2021/08/18 09:58:55;;;;;;;11.60;6.83;;;;;;;18.17;65.02;94434.30;1699277;83;20988;-57
2021/08/18 10:01:24;;;;;;;7.53;5.53;;;;;;;18.07;65.25;94430.86;1692665;83;21083;-58
2021/08/18 10:03:55;;;;;;;9.98;6.22;;;;;;;17.97;64.96;94423.38;1693164;83;21098;-59
2021/08/18 10:06:21;;;;;;;18.23;9.08;;;;;;;17.95;65.26;94421.72;1696303;83;20948;-56
2021/08/18 10:08:53;;;;;;;13.08;4.90;;;;;;;18.01;64.89;94414.14;1707125;83;21073;-59
2021/08/18 10:11:21;;;;;;;7.03;4.05;;;;;;;18.08;64.55;94410.11;1677428;83;21452;-61
2021/08/18 10:13:50;;;;;;;15.90;8.08;;;;;;;18.19;63.30;94411.66;1672680;83;21102;-59
2021/08/18 10:16:17;;;;;;;9.13;4.50;;;;;;;18.34;63.22;94409.43;1697576;83;21104;-59
2021/08/18 10:18:47;;;;;;;4.78;3.47;;;;;;;18.57;62.37;94406.00;1691995;83;21062;-61
2021/08/18 10:21:24;;;;;;;6.12;3.70;;;;;;;18.81;61.59;94398.64;1690155;83;21115;-60
2021/08/18 10:23:59;;;;;;;7.55;4.20;;;;;;;19.01;61.19;94402.55;1693885;83;21475;-60
2021/08/18 10:26:40;;;;;;;4.15;3.40;;;;;;;19.26;61.18;94398.73;1664352;83;31576;-59
2021/08/18 10:29:31;;;;;;;5.97;3.72;;;;;;;19.41;61.18;94405.41;1603849;87;21124;-61
2021/08/18 10:32:02;;;;;;;5.30;3.50;;;;;;;19.59;60.79;94406.97;1610596;87;21111;-61
2021/08/18 10:34:39;;;;;;;5.87;3.98;;;;;;;19.76;61.41;94404.88;1597836;87;21258;-60
2021/08/18 10:37:23;;;;;;;9.73;4.30;;;;;;;19.87;61.13;94405.45;1610710;87;21074;-59
2021/08/18 10:39:53;;;;;;;16.15;4.70;;;;;;;20.03;60.55;94398.44;1613423;88;21080;-57
2021/08/18 10:42:42;;;;;;;12.82;4.70;;;;;;;20.23;60.25;94393.86;1599577;87;21107;-59
2021/08/18 10:45:26;;;;;;;5.67;4.15;;;;;;;20.42;59.66;94397.54;1596343;88;21613;-58
2021/08/18 10:47:56;;;;;;;5.45;4.17;;;;;;;20.62;59.09;94391.54;1613625;88;21045;-59
2021/08/18 10:50:27;;;;;;;4.47;3.85;;;;;;;20.85;58.19;94387.30;1594060;87;21233;-66
2021/08/18 10:52:55;;;;;;;8.58;4.05;;;;;;;21.14;56.53;94386.52;1591214;88;21137;-52
2021/08/18 10:55:30;;;;;;;9.55;4.60;;;;;;;21.36;55.25;94386.28;1592987;87;21126;-63
2021/08/18 10:58:02;;;;;;;7.58;4.10;;;;;;;21.46;55.28;94392.40;1595492;89;21174;-61
2021/08/18 11:00:44;;;;;;;4.05;3.67;;;;;;;21.52;55.07;94398.72;1576601;89;21197;-68
2021/08/18 11:03:31;;;;;;;5.40;3.95;;;;;;;21.50;55.57;94393.52;1594465;89;21636;-59
2021/08/18 11:05:58;;;;;;;6.17;4.03;;;;;;;21.36;55.30;94394.68;1623160;87;21763;-62
2021/08/18 11:08:28;;;;;;;8.53;4.55;;;;;;;21.17;55.98;94396.03;1582032;88;21216;-60
2021/08/18 11:11:03;;;;;;;9.00;5.65;;;;;;;21.00;56.04;94398.23;1577357;89;21490;-61
2021/08/18 11:13:50;;;;;;;5.37;4.75;;;;;;;20.87;56.85;94393.13;1569647;89;21366;-60
2021/08/18 11:16:26;;;;;;;6.08;4.28;;;;;;;20.78;57.19;94389.25;1569133;89;21940;-59
2021/08/18 11:19:10;;;;;;;5.72;4.62;;;;;;;20.69;57.39;94388.94;1594825;89;21234;-59
2021/08/18 11:21:44;;;;;;;10.50;4.95;;;;;;;20.61;57.26;94383.81;1569229;89;21172;-57
2021/08/18 11:24:16;;;;;;;6.70;5.12;;;;;;;20.52;57.55;94389.70;1576708;89;21049;-59
2021/08/18 11:26:46;;;;;;;7.75;4.67;;;;;;;20.44;57.64;94385.20;1588442;89;21660;-62
2021/08/18 11:29:19;;;;;;;8.88;4.70;;;;;;;20.40;57.88;94390.31;1622968;87;21029;-59
2021/08/18 11:31:50;;;;;;;8.13;4.95;;;;;;;20.38;57.92;94388.69;1623358;87;21111;-55
2021/08/18 11:34:31;;;;;;;14.07;5.97;;;;;;;20.34;58.60;94381.97;1605616;87;21151;-56
2021/08/18 11:37:07;;;;;;;7.72;4.97;;;;;;;20.38;58.64;94370.52;1619314;87;21098;-59
2021/08/18 11:39:40;;;;;;;15.28;5.92;;;;;;;20.40;58.42;94379.14;1592281;88;21379;-56
2021/08/18 11:42:21;;;;;;;8.73;5.33;;;;;;;20.41;57.64;94375.80;1569260;88;21257;-59
2021/08/18 11:45:05;;;;;;;7.15;5.45;;;;;;;20.53;58.23;94376.51;1586361;88;21781;-61
2021/08/18 11:47:36;;;;;;;7.37;4.78;;;;;;;20.77;57.98;94370.30;1585216;88;21563;-57
2021/08/18 11:50:03;;;;;;;7.78;5.58;;;;;;;20.99;57.66;94381.96;1601323;88;21677;-61